Portada
METAR-TAF:

METAR-TAF

Aeroports :

Pruniers

Romorantin-Lanthenay, França

latitud: 47-19N, longitud: 001-41E, altitud: 85 m

Observació

L'informe es va fer fa 30 minuts, a les 01:30 UTC
Vent calma
Temperatura 9°C
Humitat 100%
Pressió 1018 hPa
Visibilitat: 0700 m
boira

METAR: LFYR 160130Z AUTO 00000KT 0800 0700 FG NSC 09/09 Q1018

Hora: 04:00 (02:00 UTC)


TAF: manca

Observacions i pronòstics meteorològics de més de 4000 aeroports (METAR i TAF).

Les estacions disponibles són els punts grocs i vermells al mapa.

Posi el ratolí al punt desitjat per veure el nom de l'estació.

Feu clic per veure les observacions i els pronòstics meteorològics.

Per canviar el mapa: feu clic els botons verds amb una creu de color negre per apropar; al botó verd amb un guió per allunyar la imatge; o en les fletxes verdes per a mapes adjacents.


METAR-TAF: